createdAt,value
2023-05-05T00:01:19.381Z,77.39
2023-05-05T00:03:48.931Z,77.45
2023-05-05T00:06:18.545Z,77.37
2023-05-05T00:08:47.913Z,77.39
2023-05-05T00:11:17.340Z,77.79
2023-05-05T00:13:47.357Z,77.63
2023-05-05T00:16:18.268Z,77.59
2023-05-05T00:18:48.193Z,77.92
2023-05-05T00:21:17.758Z,78.06
2023-05-05T00:23:47.126Z,77.87
2023-05-05T00:26:16.514Z,77.71
2023-05-05T00:28:49.686Z,77.54
2023-05-05T00:31:19.383Z,77.30
2023-05-05T00:33:48.687Z,77.35
2023-05-05T00:36:23.524Z,77.17
2023-05-05T00:38:52.960Z,77.01
2023-05-05T00:41:22.390Z,77.09
2023-05-05T00:43:52.720Z,77.19
2023-05-05T00:46:28.306Z,77.17
2023-05-05T00:48:57.978Z,77.58
2023-05-05T00:51:28.694Z,77.59
2023-05-05T00:53:58.509Z,77.61
2023-05-05T00:56:28.416Z,77.62
2023-05-05T00:58:59.281Z,77.32
2023-05-05T01:01:28.924Z,77.10
2023-05-05T01:03:58.993Z,76.95
2023-05-05T01:07:12.943Z,76.86
2023-05-05T01:10:22.385Z,76.82
2023-05-05T01:13:17.070Z,76.58
2023-05-05T01:16:09.560Z,76.82
2023-05-05T01:19:01.060Z,78.09
2023-05-05T01:21:56.345Z,78.09
2023-05-05T01:25:04.417Z,78.19
2023-05-05T01:28:31.436Z,78.35
2023-05-05T01:31:51.953Z,77.99
2023-05-05T01:34:28.504Z,78.14
2023-05-05T01:37:19.298Z,78.30
2023-05-05T01:39:57.962Z,78.55
2023-05-05T01:42:30.086Z,78.94
2023-05-05T01:45:08.743Z,78.65
2023-05-05T01:47:40.524Z,78.66
2023-05-05T01:50:12.478Z,78.36
2023-05-05T01:52:43.697Z,78.23
2023-05-05T01:55:18.233Z,78.38
2023-05-05T01:57:49.446Z,78.48
2023-05-05T02:00:20.430Z,79.35
2023-05-05T02:02:50.887Z,79.16
2023-05-05T02:05:24.660Z,79.36
2023-05-05T02:07:59.176Z,79.51
2023-05-05T02:10:30.081Z,79.68
2023-05-05T02:13:05.006Z,80.04
2023-05-05T02:15:38.688Z,80.12
2023-05-05T02:18:08.737Z,80.21
2023-05-05T02:20:41.876Z,80.34
2023-05-05T02:23:12.660Z,80.28
2023-05-05T02:25:53.676Z,80.21
2023-05-05T02:28:42.559Z,79.90
2023-05-05T02:31:14.150Z,80.48
2023-05-05T02:33:47.745Z,80.85
2023-05-05T02:36:28.037Z,81.24
2023-05-05T02:39:07.674Z,81.14
2023-05-05T02:41:43.578Z,81.10
2023-05-05T02:44:22.524Z,80.20
2023-05-05T02:46:53.747Z,80.42
2023-05-05T02:49:23.813Z,81.25
2023-05-05T02:51:55.523Z,81.55
2023-05-05T02:54:29.130Z,81.81
2023-05-05T02:57:02.068Z,81.61
2023-05-05T02:59:50.414Z,81.60
2023-05-05T03:03:06.902Z,81.41
2023-05-05T03:06:01.172Z,81.19
2023-05-05T03:08:44.161Z,81.41
2023-05-05T03:11:26.547Z,81.13
2023-05-05T03:14:09.065Z,80.53
2023-05-05T03:16:42.695Z,80.46
2023-05-05T03:19:21.490Z,80.43
2023-05-05T03:21:54.872Z,80.26
2023-05-05T03:24:27.081Z,80.09
2023-05-05T03:27:03.320Z,79.93
2023-05-05T03:29:38.342Z,79.92
2023-05-05T03:32:10.870Z,79.83
2023-05-05T03:34:42.576Z,79.62
2023-05-05T03:37:12.600Z,79.75
2023-05-05T03:39:52.862Z,79.81
2023-05-05T03:42:25.798Z,79.78
2023-05-05T03:44:58.640Z,80.09
2023-05-05T03:47:28.210Z,80.01
2023-05-05T03:49:57.699Z,80.23
2023-05-05T03:52:28.079Z,80.15
2023-05-05T03:54:58.040Z,80.33
2023-05-05T03:57:27.939Z,80.32
2023-05-05T03:59:59.064Z,80.53
2023-05-05T04:02:29.244Z,80.67
2023-05-05T04:04:58.782Z,80.69
2023-05-05T04:07:28.737Z,80.68
2023-05-05T04:09:58.127Z,79.67
2023-05-05T04:12:29.157Z,79.69
2023-05-05T04:15:01.465Z,80.95
2023-05-05T04:17:31.415Z,81.27
2023-05-05T04:20:01.151Z,81.05
2023-05-05T04:22:35.155Z,80.50
2023-05-05T04:25:06.817Z,80.07
2023-05-05T04:27:36.934Z,80.09
2023-05-05T04:30:09.693Z,80.26
2023-05-05T04:32:44.689Z,80.10
2023-05-05T04:35:16.346Z,80.13
2023-05-05T04:37:46.227Z,80.76
2023-05-05T04:40:19.389Z,80.58
2023-05-05T04:42:49.814Z,80.42
2023-05-05T04:45:19.515Z,80.28
2023-05-05T04:47:49.784Z,80.46
2023-05-05T04:50:21.223Z,79.62
2023-05-05T04:52:55.111Z,80.07
2023-05-05T04:55:24.947Z,79.78
2023-05-05T04:57:55.584Z,79.52
2023-05-05T05:00:26.061Z,79.22
2023-05-05T05:02:57.262Z,78.82
2023-05-05T05:05:26.905Z,78.31
2023-05-05T05:07:56.364Z,78.07
2023-05-05T05:10:26.435Z,77.83
2023-05-05T05:12:57.031Z,77.56
2023-05-05T05:15:27.097Z,78.23
2023-05-05T05:17:56.712Z,77.90
2023-05-05T05:20:27.065Z,78.09
2023-05-05T05:22:57.567Z,77.83
2023-05-05T05:25:27.529Z,80.03
2023-05-05T05:28:08.857Z,81.00
2023-05-05T05:30:41.314Z,81.93
2023-05-05T05:33:11.674Z,81.91
2023-05-05T05:35:42.045Z,81.21
2023-05-05T05:38:12.367Z,80.67
2023-05-05T05:40:42.499Z,79.95
2023-05-05T05:43:12.394Z,79.58
2023-05-05T05:45:42.052Z,78.95
2023-05-05T05:48:12.526Z,78.40
2023-05-05T05:50:42.307Z,77.74
2023-05-05T05:53:11.772Z,76.42
2023-05-05T05:55:41.612Z,76.41
2023-05-05T05:58:11.197Z,76.44
2023-05-05T06:00:40.675Z,76.02
2023-05-05T06:03:14.618Z,75.71
2023-05-05T06:05:46.476Z,75.48
2023-05-05T06:08:16.270Z,75.26
2023-05-05T06:10:48.666Z,75.25
2023-05-05T06:13:29.866Z,74.45
2023-05-05T06:16:08.020Z,73.61
2023-05-05T06:20:00.038Z,72.41
2023-05-05T06:22:30.411Z,71.75
2023-05-05T06:25:00.761Z,71.45
2023-05-05T06:27:30.691Z,71.32
2023-05-05T06:30:00.644Z,70.60
2023-05-05T06:32:31.485Z,70.24
2023-05-05T06:35:01.385Z,70.18
2023-05-05T06:37:30.896Z,70.35
2023-05-05T06:40:00.356Z,69.93
2023-05-05T06:42:32.340Z,68.40
2023-05-05T06:45:05.296Z,68.03
2023-05-05T06:47:35.004Z,66.57
2023-05-05T06:50:04.815Z,65.67
2023-05-05T06:52:34.404Z,65.50
2023-05-05T06:55:04.793Z,65.35
2023-05-05T06:57:34.692Z,64.75
2023-05-05T07:00:09.381Z,64.69
2023-05-05T07:02:40.662Z,64.43
2023-05-05T07:05:10.293Z,64.10
2023-05-05T07:07:53.802Z,64.42
2023-05-05T07:10:28.314Z,63.95
2023-05-05T07:12:59.760Z,63.40
2023-05-05T07:15:30.531Z,62.22
2023-05-05T07:18:00.244Z,62.80
2023-05-05T07:20:34.115Z,61.31
2023-05-05T07:23:27.306Z,62.34
2023-05-05T07:25:59.949Z,61.45
2023-05-05T07:28:29.435Z,61.16
2023-05-05T07:30:58.781Z,60.60
2023-05-05T07:33:28.465Z,59.73
2023-05-05T07:35:57.805Z,58.91
2023-05-05T07:38:29.172Z,59.27
2023-05-05T07:40:59.108Z,57.63
2023-05-05T07:43:28.614Z,56.82
2023-05-05T07:45:59.601Z,56.79
2023-05-05T07:48:31.808Z,56.94
2023-05-05T07:51:01.950Z,53.47
2023-05-05T07:53:33.083Z,53.35
2023-05-05T07:56:02.964Z,51.61
2023-05-05T07:58:33.639Z,51.34
2023-05-05T08:01:04.019Z,51.52
2023-05-05T08:03:38.757Z,49.33
2023-05-05T08:06:10.258Z,50.73
2023-05-05T08:08:39.877Z,51.39
2023-05-05T08:11:09.802Z,50.42
2023-05-05T08:16:30.363Z,51.89
2023-05-05T08:19:05.063Z,50.87
2023-05-05T08:21:39.396Z,50.40
2023-05-05T08:24:10.419Z,50.59
2023-05-05T08:26:40.352Z,50.34
2023-05-05T08:29:11.884Z,49.15
2023-05-05T08:31:42.690Z,50.18
2023-05-05T08:34:13.694Z,49.39
2023-05-05T08:36:43.897Z,49.31
2023-05-05T08:39:15.285Z,48.41
2023-05-05T08:41:44.790Z,47.06
2023-05-05T08:44:24.062Z,46.63
2023-05-05T08:46:56.006Z,45.98
2023-05-05T08:49:26.422Z,46.31
2023-05-05T08:52:03.332Z,47.47
2023-05-05T08:54:51.964Z,47.13
2023-05-05T08:57:32.735Z,46.88
2023-05-05T09:00:04.413Z,46.38
2023-05-05T09:02:35.454Z,45.60
2023-05-05T09:05:07.562Z,45.09
2023-05-05T09:08:02.676Z,45.94
2023-05-05T09:10:33.848Z,44.68
2023-05-05T09:13:07.324Z,44.83
2023-05-05T09:15:42.288Z,44.20
2023-05-05T09:18:13.335Z,44.36
2023-05-05T09:20:43.040Z,44.47
2023-05-05T09:23:16.418Z,42.83
2023-05-05T09:26:09.315Z,43.11
2023-05-05T09:28:39.358Z,42.26
2023-05-05T09:31:16.660Z,41.55
2023-05-05T09:33:46.726Z,41.38
2023-05-05T09:36:17.630Z,41.16
2023-05-05T09:39:07.669Z,41.22
2023-05-05T09:41:42.744Z,39.88
2023-05-05T09:44:13.277Z,39.43
2023-05-05T09:46:55.386Z,39.55
2023-05-05T09:49:27.510Z,40.08
2023-05-05T09:51:59.376Z,38.73
2023-05-05T09:54:30.910Z,37.42
2023-05-05T09:57:00.305Z,36.47
2023-05-05T09:59:31.271Z,37.42
2023-05-05T10:02:15.468Z,36.34
2023-05-05T10:04:45.043Z,36.96
2023-05-05T10:07:25.112Z,36.02
2023-05-05T10:09:55.237Z,34.91
2023-05-05T10:12:26.741Z,35.32
2023-05-05T10:14:57.194Z,36.90
2023-05-05T10:17:31.120Z,36.23
2023-05-05T10:20:04.205Z,36.67
2023-05-05T10:22:35.425Z,35.72
2023-05-05T10:25:13.741Z,35.69
2023-05-05T10:27:51.470Z,35.34
2023-05-05T10:30:30.814Z,36.15
2023-05-05T10:33:31.471Z,36.02
2023-05-05T10:36:07.292Z,35.87
2023-05-05T10:38:42.676Z,36.09
2023-05-05T10:41:14.759Z,36.46
2023-05-05T10:43:45.115Z,37.14
2023-05-05T10:46:15.841Z,36.56
2023-05-05T10:49:26.008Z,36.50
2023-05-05T10:52:09.861Z,38.86
2023-05-05T10:55:03.809Z,38.19
2023-05-05T10:57:40.186Z,37.00
2023-05-05T11:00:11.011Z,36.73
2023-05-05T11:02:42.157Z,36.79
2023-05-05T11:05:23.762Z,35.95
2023-05-05T11:07:53.370Z,35.50
2023-05-05T11:10:23.883Z,35.19
2023-05-05T11:12:59.490Z,34.51
2023-05-05T11:15:30.464Z,34.49
2023-05-05T11:18:07.507Z,34.22
2023-05-05T11:20:39.800Z,33.99
2023-05-05T11:23:09.385Z,34.76
2023-05-05T11:25:43.554Z,35.29
2023-05-05T11:28:33.634Z,35.42
2023-05-05T11:31:03.676Z,36.01
2023-05-05T11:33:38.494Z,36.24
2023-05-05T11:36:16.688Z,36.33
2023-05-05T11:39:21.350Z,36.35
2023-05-05T11:42:28.757Z,36.30
2023-05-05T11:45:22.031Z,36.20
2023-05-05T11:47:51.442Z,35.43
2023-05-05T11:50:23.353Z,35.81
2023-05-05T11:52:52.929Z,35.79
2023-05-05T11:55:22.806Z,34.98
2023-05-05T11:57:52.524Z,35.38
2023-05-05T12:00:37.793Z,35.13
2023-05-05T12:03:14.747Z,35.39
2023-05-05T12:05:44.215Z,34.14
2023-05-05T12:08:15.000Z,33.93
2023-05-05T12:10:44.651Z,33.78
2023-05-05T12:13:20.112Z,34.12
2023-05-05T12:15:49.806Z,34.53
2023-05-05T12:18:20.922Z,34.11
2023-05-05T12:20:51.369Z,33.64
2023-05-05T12:23:23.539Z,33.99
2023-05-05T12:25:53.609Z,33.30
2023-05-05T12:28:23.144Z,32.78
2023-05-05T12:30:59.687Z,32.30
2023-05-05T12:33:30.576Z,31.63
2023-05-05T12:35:59.944Z,31.50
2023-05-05T12:38:32.818Z,31.74
2023-05-05T12:41:04.573Z,31.16
2023-05-05T12:43:35.539Z,31.10
2023-05-05T12:46:07.770Z,31.30
2023-05-05T12:48:39.158Z,32.52
2023-05-05T12:51:18.237Z,31.95
2023-05-05T12:53:50.435Z,32.21
2023-05-05T12:56:38.887Z,31.16
2023-05-05T12:59:30.920Z,30.24
2023-05-05T13:02:01.832Z,31.10
2023-05-05T13:04:31.774Z,31.70
2023-05-05T13:07:15.583Z,31.64
2023-05-05T13:09:45.431Z,31.52
2023-05-05T13:12:19.499Z,32.03
2023-05-05T13:14:50.972Z,32.28
2023-05-05T13:17:20.424Z,32.70
2023-05-05T13:19:49.809Z,33.15
2023-05-05T13:22:19.268Z,33.25
2023-05-05T13:25:07.372Z,32.95
2023-05-05T13:27:38.057Z,33.69
2023-05-05T13:30:10.537Z,33.65
2023-05-05T13:32:39.970Z,33.94
2023-05-05T13:35:11.592Z,34.18
2023-05-05T13:37:42.775Z,33.93
2023-05-05T13:40:13.494Z,33.97
2023-05-05T13:42:43.502Z,33.67
2023-05-05T13:45:14.410Z,32.48
2023-05-05T13:47:45.947Z,30.73
2023-05-05T13:50:15.335Z,29.80
2023-05-05T13:52:45.339Z,28.14
2023-05-05T13:55:15.108Z,27.55
2023-05-05T13:57:48.223Z,27.27
2023-05-05T14:00:18.568Z,26.85
2023-05-05T14:02:48.362Z,27.48
2023-05-05T14:05:18.045Z,27.78
2023-05-05T14:07:47.912Z,28.68
2023-05-05T14:10:17.515Z,29.85
2023-05-05T14:12:47.861Z,30.51
2023-05-05T14:15:17.357Z,30.05
2023-05-05T14:17:46.967Z,30.62
2023-05-05T14:20:16.378Z,31.53
2023-05-05T14:22:48.224Z,31.79
2023-05-05T14:25:18.650Z,31.76
2023-05-05T14:27:48.969Z,31.98
2023-05-05T14:30:18.402Z,33.07
2023-05-05T14:32:48.268Z,33.21
2023-05-05T14:35:18.253Z,33.11
2023-05-05T14:37:47.714Z,33.43
2023-05-05T14:40:17.174Z,33.69
2023-05-05T14:42:46.674Z,33.29
2023-05-05T14:45:17.455Z,33.73
2023-05-05T14:47:47.020Z,31.77
2023-05-05T14:50:17.924Z,31.19
2023-05-05T14:52:47.676Z,30.19
2023-05-05T14:55:17.307Z,30.57
2023-05-05T14:57:47.956Z,30.40
2023-05-05T15:00:17.798Z,29.52
2023-05-05T15:02:48.512Z,30.95
2023-05-05T15:05:18.599Z,31.71
2023-05-05T15:07:48.067Z,33.32
2023-05-05T15:10:18.638Z,33.84
2023-05-05T15:12:51.215Z,31.35
2023-05-05T15:15:20.784Z,32.00
2023-05-05T15:17:51.968Z,31.85
2023-05-05T15:20:23.151Z,31.78
2023-05-05T15:22:55.317Z,31.55
2023-05-05T15:25:25.145Z,32.69
2023-05-05T15:27:55.155Z,33.68
2023-05-05T15:30:25.471Z,33.80
2023-05-05T15:32:55.305Z,34.27
2023-05-05T15:35:27.821Z,34.26
2023-05-05T15:37:57.263Z,34.63
2023-05-05T15:40:27.004Z,35.51
2023-05-05T15:42:57.715Z,34.82
2023-05-05T15:45:27.285Z,35.57
2023-05-05T15:47:58.893Z,34.36
2023-05-05T15:50:28.369Z,33.23
2023-05-05T15:52:57.982Z,33.75
2023-05-05T15:55:28.043Z,34.69
2023-05-05T15:57:58.701Z,34.44
2023-05-05T16:00:28.350Z,34.36
2023-05-05T16:03:01.990Z,34.09
2023-05-05T16:05:31.549Z,34.54
2023-05-05T16:08:00.990Z,35.40
2023-05-05T16:10:32.008Z,35.72
2023-05-05T16:13:02.637Z,35.89
2023-05-05T16:15:32.251Z,36.31
2023-05-05T16:18:03.084Z,37.31
2023-05-05T16:20:33.072Z,37.33
2023-05-05T16:23:03.368Z,37.57
2023-05-05T16:25:32.815Z,37.78
2023-05-05T16:28:02.251Z,37.40
2023-05-05T16:30:32.899Z,37.88
2023-05-05T16:33:02.611Z,38.48
2023-05-05T16:35:32.094Z,38.78
2023-05-05T16:38:01.814Z,38.78
2023-05-05T16:40:31.374Z,38.81
2023-05-05T16:43:01.184Z,38.04
2023-05-05T16:45:30.679Z,38.03
2023-05-05T16:48:00.373Z,38.90
2023-05-05T16:50:29.909Z,39.28
2023-05-05T16:52:59.415Z,39.41
2023-05-05T16:55:28.790Z,39.43
2023-05-05T16:57:58.295Z,40.19
2023-05-05T17:00:28.177Z,41.24
2023-05-05T17:02:58.992Z,41.50
2023-05-05T17:05:29.604Z,41.04
2023-05-05T17:08:03.309Z,41.47
2023-05-05T17:10:32.593Z,41.69
2023-05-05T17:13:02.189Z,41.66
2023-05-05T17:15:31.805Z,42.91
2023-05-05T17:18:01.266Z,42.61
2023-05-05T17:20:32.114Z,42.88
2023-05-05T17:23:05.341Z,43.53
2023-05-05T17:25:36.059Z,43.58
2023-05-05T17:28:05.712Z,44.62
2023-05-05T17:30:35.230Z,45.14
2023-05-05T17:33:04.761Z,45.56
2023-05-05T17:35:34.280Z,46.16
2023-05-05T17:38:03.668Z,46.28
2023-05-05T17:40:33.060Z,47.24
2023-05-05T17:43:02.468Z,47.41
2023-05-05T17:45:31.932Z,47.65
2023-05-05T17:48:01.311Z,47.62
2023-05-05T17:50:30.853Z,48.03
2023-05-05T17:53:00.878Z,48.46
2023-05-05T17:55:30.188Z,48.35
2023-05-05T17:57:59.772Z,49.02
2023-05-05T18:00:29.167Z,49.33
2023-05-05T18:02:58.584Z,49.25
2023-05-05T18:05:28.029Z,49.28
2023-05-05T18:07:57.389Z,49.58
2023-05-05T18:10:26.704Z,49.75
2023-05-05T18:12:56.399Z,50.04
2023-05-05T18:15:26.637Z,50.24
2023-05-05T18:17:56.425Z,50.19
2023-05-05T18:20:28.180Z,50.73
2023-05-05T18:22:59.598Z,50.31
2023-05-05T18:25:29.405Z,50.34
2023-05-05T18:27:58.878Z,50.87
2023-05-05T18:30:28.826Z,50.85
2023-05-05T18:32:58.215Z,51.03
2023-05-05T18:35:28.936Z,51.17
2023-05-05T18:37:58.330Z,51.05
2023-05-05T18:40:27.942Z,50.97
2023-05-05T18:42:57.702Z,51.05
2023-05-05T18:45:30.158Z,51.18
2023-05-05T18:47:59.934Z,51.38
2023-05-05T18:50:29.488Z,51.39
2023-05-05T18:52:58.888Z,51.88
2023-05-05T18:55:28.304Z,52.07
2023-05-05T18:57:58.459Z,52.08
2023-05-05T19:00:29.002Z,52.37
2023-05-05T19:02:58.754Z,52.65
2023-05-05T19:05:28.842Z,52.70
2023-05-05T19:07:58.381Z,53.14
2023-05-05T19:10:27.904Z,53.31
2023-05-05T19:12:57.836Z,53.33
2023-05-05T19:15:27.691Z,53.67
2023-05-05T19:18:06.994Z,53.89
2023-05-05T19:20:38.837Z,54.18
2023-05-05T19:23:11.892Z,54.08
2023-05-05T19:25:41.589Z,54.55
2023-05-05T19:28:12.212Z,54.46
2023-05-05T19:30:42.064Z,54.60
2023-05-05T19:33:11.624Z,54.67
2023-05-05T19:35:41.281Z,55.00
2023-05-05T19:38:10.981Z,55.24
2023-05-05T19:40:41.675Z,55.20
2023-05-05T19:43:11.116Z,55.12
2023-05-05T19:45:40.659Z,55.39
2023-05-05T19:48:10.127Z,55.30
2023-05-05T19:50:39.547Z,55.67
2023-05-05T19:53:10.762Z,56.03
2023-05-05T19:55:40.297Z,56.04
2023-05-05T19:58:11.095Z,55.97
2023-05-05T20:00:40.641Z,56.43
2023-05-05T20:03:10.142Z,56.70
2023-05-05T20:05:39.753Z,56.62
2023-05-05T20:08:11.602Z,56.76
2023-05-05T20:10:41.187Z,56.91
2023-05-05T20:13:12.109Z,57.09
2023-05-05T20:15:41.809Z,57.17
2023-05-05T20:18:11.144Z,57.57
2023-05-05T20:20:40.789Z,58.02
2023-05-05T20:23:14.759Z,59.03
2023-05-05T20:25:44.083Z,59.85
2023-05-05T20:28:13.401Z,59.93
2023-05-05T20:30:42.672Z,60.43
2023-05-05T20:33:12.128Z,60.25
2023-05-05T20:35:41.666Z,60.76
2023-05-05T20:38:11.356Z,60.80
2023-05-05T20:40:41.766Z,60.82
2023-05-05T20:43:11.347Z,60.94
2023-05-05T20:45:41.346Z,61.30
2023-05-05T20:48:11.620Z,61.54
2023-05-05T20:50:42.055Z,61.77
2023-05-05T20:53:16.252Z,61.31
2023-05-05T20:55:50.012Z,61.69
2023-05-05T20:58:19.107Z,62.23
2023-05-05T21:00:48.774Z,62.62
2023-05-05T21:03:18.141Z,63.13
2023-05-05T21:05:47.784Z,62.84
2023-05-05T21:08:17.388Z,62.94
2023-05-05T21:10:46.799Z,63.09
2023-05-05T21:13:16.311Z,63.39
2023-05-05T21:15:45.918Z,63.59
2023-05-05T21:18:15.310Z,63.45
2023-05-05T21:20:44.578Z,63.13
2023-05-05T21:23:13.877Z,63.26
2023-05-05T21:25:43.345Z,63.64
2023-05-05T21:28:12.618Z,63.67
2023-05-05T21:30:42.157Z,63.61
2023-05-05T21:33:11.501Z,64.20
2023-05-05T21:35:40.998Z,63.98
2023-05-05T21:38:10.702Z,63.97
2023-05-05T21:40:40.149Z,63.87
2023-05-05T21:43:09.502Z,64.11
2023-05-05T21:45:39.389Z,63.69
2023-05-05T21:48:09.400Z,63.73
2023-05-05T21:50:38.863Z,63.66
2023-05-05T21:53:08.120Z,64.10
2023-05-05T21:55:37.400Z,63.94
2023-05-05T21:58:06.607Z,64.16
2023-05-05T22:00:35.990Z,64.18
2023-05-05T22:03:05.585Z,64.38
2023-05-05T22:05:35.254Z,64.25
2023-05-05T22:08:04.985Z,64.30
2023-05-05T22:10:34.416Z,64.39
2023-05-05T22:13:04.515Z,64.45
2023-05-05T22:15:45.364Z,64.34
2023-05-05T22:18:16.221Z,64.83
2023-05-05T22:20:46.986Z,64.69
2023-05-05T22:23:16.632Z,65.19
2023-05-05T22:25:46.906Z,65.32
2023-05-05T22:28:16.375Z,65.18
2023-05-05T22:30:45.678Z,65.44
2023-05-05T22:33:15.886Z,65.36
2023-05-05T22:35:45.220Z,65.48
2023-05-05T22:38:15.308Z,65.56
2023-05-05T22:40:47.436Z,65.59
2023-05-05T22:43:17.088Z,65.71
2023-05-05T22:45:46.716Z,65.79
2023-05-05T22:48:17.184Z,65.73
2023-05-05T22:50:46.533Z,66.06
2023-05-05T22:53:15.766Z,66.41
2023-05-05T22:55:45.396Z,66.28
2023-05-05T22:58:15.027Z,65.62
2023-05-05T23:00:44.400Z,65.86
2023-05-05T23:03:14.601Z,66.06
2023-05-05T23:05:46.856Z,66.10
2023-05-05T23:08:18.665Z,66.48
2023-05-05T23:10:48.099Z,66.38
2023-05-05T23:13:17.748Z,66.65
2023-05-05T23:15:47.349Z,66.60
2023-05-05T23:18:16.824Z,66.75
2023-05-05T23:20:46.359Z,66.97
2023-05-05T23:23:15.812Z,66.67
2023-05-05T23:25:45.417Z,66.56
2023-05-05T23:28:14.672Z,67.08
2023-05-05T23:30:44.016Z,66.91
2023-05-05T23:33:14.065Z,67.02
2023-05-05T23:35:43.502Z,66.84
2023-05-05T23:38:12.832Z,66.65
2023-05-05T23:40:42.243Z,66.78
2023-05-05T23:43:12.161Z,67.10
2023-05-05T23:45:41.722Z,67.34
2023-05-05T23:48:13.373Z,67.47
2023-05-05T23:50:43.167Z,67.09
2023-05-05T23:53:16.193Z,66.96
2023-05-05T23:55:45.690Z,67.17
2023-05-05T23:58:14.937Z,67.46
